createdAt,value
2023-05-17T00:02:48.142Z,98932.56
2023-05-17T00:05:50.258Z,98925.69
2023-05-17T00:08:54.400Z,98924.84
2023-05-17T00:11:56.681Z,98930.84
2023-05-17T00:14:59.996Z,98924.63
2023-05-17T00:18:02.169Z,98925.66
2023-05-17T00:21:04.309Z,98925.63
2023-05-17T00:24:09.330Z,98923.84
2023-05-17T00:27:11.593Z,98932.69
2023-05-17T00:30:14.751Z,98932.75
2023-05-17T00:33:16.688Z,98930.22
2023-05-17T00:36:19.002Z,98928.44
2023-05-17T00:39:22.666Z,98931.97
2023-05-17T00:42:24.519Z,98933.72
2023-05-17T00:45:27.013Z,98931.19
2023-05-17T00:48:29.919Z,98934.75
2023-05-17T00:51:31.975Z,98927.69
2023-05-17T00:54:36.291Z,98931.25
2023-05-17T00:57:38.594Z,98937.59
2023-05-17T01:00:41.095Z,98928.81
2023-05-17T01:03:43.330Z,98935.81
2023-05-17T01:06:46.231Z,98939.16
2023-05-17T01:09:49.840Z,98928.34
2023-05-17T01:12:59.777Z,98940.72
2023-05-17T01:16:05.701Z,98947.69
2023-05-17T01:19:13.301Z,98947.59
2023-05-17T01:22:18.268Z,98943.91
2023-05-17T01:25:29.814Z,98948.19
2023-05-17T01:28:37.634Z,98952.56
2023-05-17T01:31:39.752Z,98944.59
2023-05-17T01:34:41.838Z,98941.19
2023-05-17T01:37:44.850Z,98947.34
2023-05-17T01:40:52.515Z,98954.25
2023-05-17T01:44:02.742Z,98952.41
2023-05-17T01:47:08.950Z,98954.16
2023-05-17T01:50:13.217Z,98954.97
2023-05-17T01:53:19.608Z,98955.09
2023-05-17T01:56:27.172Z,98955.06
2023-05-17T01:59:31.657Z,98957.78
2023-05-17T02:02:34.376Z,98961.59
2023-05-17T02:05:36.629Z,98965.22
2023-05-17T02:08:40.672Z,98979.53
2023-05-17T02:11:42.904Z,98984.94
2023-05-17T02:14:47.154Z,98975.38
2023-05-17T02:17:49.904Z,98977.16
2023-05-17T02:20:51.914Z,98966.56
2023-05-17T02:23:53.892Z,98968.25
2023-05-17T02:26:55.961Z,98981.63
2023-05-17T02:30:02.296Z,98979.00
2023-05-17T02:33:04.458Z,98980.69
2023-05-17T02:36:06.688Z,98978.78
2023-05-17T02:39:08.681Z,98983.34
2023-05-17T02:42:10.584Z,98990.25
2023-05-17T02:45:16.250Z,98986.69
2023-05-17T02:48:18.771Z,98992.84
2023-05-17T02:51:21.481Z,98993.72
2023-05-17T02:54:24.203Z,98997.25
2023-05-17T02:57:26.767Z,98990.22
2023-05-17T03:00:30.669Z,98992.16
2023-05-17T03:03:32.945Z,99000.16
2023-05-17T03:06:35.880Z,98983.34
2023-05-17T03:09:38.405Z,98994.88
2023-05-17T03:12:41.306Z,98996.91
2023-05-17T03:15:45.400Z,98998.88
2023-05-17T03:18:48.937Z,99009.28
2023-05-17T03:21:51.004Z,99009.19
2023-05-17T03:24:53.762Z,99012.53
2023-05-17T03:27:56.225Z,99013.53
2023-05-17T03:30:59.922Z,99016.09
2023-05-17T03:34:05.468Z,99015.31
2023-05-17T03:37:07.605Z,99018.84
2023-05-17T03:40:09.868Z,99019.72
2023-05-17T03:43:12.244Z,99016.22
2023-05-17T03:46:16.722Z,99014.34
2023-05-17T03:49:19.184Z,99017.97
2023-05-17T03:52:21.682Z,99017.97
2023-05-17T03:55:24.255Z,99028.66
2023-05-17T03:58:26.492Z,99033.09
2023-05-17T04:01:33.344Z,99038.59
2023-05-17T04:04:38.076Z,99038.84
2023-05-17T04:07:40.096Z,99046.75
2023-05-17T04:10:42.497Z,99048.78
2023-05-17T04:13:45.010Z,99057.72
2023-05-17T04:16:49.019Z,99069.13
2023-05-17T04:19:51.301Z,99060.50
2023-05-17T04:22:53.495Z,99066.84
2023-05-17T04:25:56.858Z,99064.81
2023-05-17T04:28:59.587Z,99065.66
2023-05-17T04:32:03.455Z,99073.47
2023-05-17T04:35:06.041Z,99079.59
2023-05-17T04:38:08.298Z,99078.69
2023-05-17T04:41:10.489Z,99086.63
2023-05-17T04:44:14.073Z,99083.97
2023-05-17T04:47:20.255Z,99091.09
2023-05-17T04:50:25.368Z,99097.13
2023-05-17T04:53:27.580Z,99104.13
2023-05-17T04:56:30.305Z,99107.59
2023-05-17T04:59:32.965Z,99115.38
2023-05-17T05:02:36.736Z,99118.78
2023-05-17T05:05:41.349Z,99117.72
2023-05-17T05:08:44.864Z,99124.91
2023-05-17T05:11:47.967Z,99124.00
2023-05-17T05:14:49.921Z,99133.59
2023-05-17T05:17:53.527Z,99136.25
2023-05-17T05:20:56.739Z,99140.44
2023-05-17T05:23:59.561Z,99146.09
2023-05-17T05:27:03.132Z,99137.56
2023-05-17T05:30:07.089Z,99137.56
2023-05-17T05:33:11.047Z,99146.28
2023-05-17T05:36:13.960Z,99148.81
2023-05-17T05:39:16.587Z,99147.03
2023-05-17T05:42:18.933Z,99155.78
2023-05-17T05:45:21.885Z,99159.09
2023-05-17T05:48:26.935Z,99156.34
2023-05-17T05:51:29.312Z,99159.25
2023-05-17T05:54:31.472Z,99162.81
2023-05-17T05:57:34.019Z,99168.13
2023-05-17T06:00:36.970Z,99170.78
2023-05-17T06:03:40.739Z,99176.38
2023-05-17T06:06:43.070Z,99177.50
2023-05-17T06:09:45.540Z,99182.91
2023-05-17T06:12:47.621Z,99196.44
2023-05-17T06:15:49.518Z,99192.78
2023-05-17T06:18:52.957Z,99191.84
2023-05-17T06:21:57.177Z,99199.66
2023-05-17T06:24:59.641Z,99196.94
2023-05-17T06:28:03.255Z,99204.69
2023-05-17T06:31:05.464Z,99208.03
2023-05-17T06:34:09.131Z,99204.53
2023-05-17T06:37:11.384Z,99204.34
2023-05-17T06:40:16.720Z,99211.22
2023-05-17T06:43:18.936Z,99208.34
2023-05-17T06:46:21.123Z,99217.41
2023-05-17T06:49:24.539Z,99217.16
2023-05-17T06:52:26.604Z,99229.59
2023-05-17T06:55:30.944Z,99223.41
2023-05-17T06:58:36.885Z,99225.00
2023-05-17T07:01:39.703Z,99232.91
2023-05-17T07:04:43.925Z,99236.84
2023-05-17T07:07:45.836Z,99241.47
2023-05-17T07:10:47.817Z,99245.03
2023-05-17T07:13:50.639Z,99247.47
2023-05-17T07:16:53.682Z,99249.63
2023-05-17T07:19:57.472Z,99245.47
2023-05-17T07:22:59.775Z,99254.59
2023-05-17T07:26:01.846Z,99258.03
2023-05-17T07:29:05.626Z,99267.31
2023-05-17T07:32:07.634Z,99273.59
2023-05-17T07:35:11.010Z,99282.69
2023-05-17T07:38:13.094Z,99275.38
2023-05-17T07:41:17.165Z,99277.13
2023-05-17T07:44:19.398Z,99291.78
2023-05-17T07:47:21.447Z,99298.31
2023-05-17T07:50:25.220Z,99296.72
2023-05-17T07:53:28.183Z,99303.09
2023-05-17T07:56:30.095Z,99306.38
2023-05-17T07:59:35.075Z,99304.53
2023-05-17T08:02:37.307Z,99310.47
2023-05-17T08:05:40.724Z,99312.75
2023-05-17T08:08:43.182Z,99303.25
2023-05-17T08:11:47.941Z,99319.78
2023-05-17T08:14:50.541Z,99318.53
2023-05-17T08:17:52.764Z,99318.91
2023-05-17T08:20:56.725Z,99326.91
2023-05-17T08:23:58.765Z,99325.72
2023-05-17T08:27:01.154Z,99333.09
2023-05-17T08:30:05.300Z,99335.81
2023-05-17T08:33:09.952Z,99340.72
2023-05-17T08:36:13.770Z,99336.41
2023-05-17T08:39:16.533Z,99336.84
2023-05-17T08:42:21.792Z,99329.25
2023-05-17T08:45:24.149Z,99335.03
2023-05-17T08:48:26.790Z,99340.47
2023-05-17T08:51:31.701Z,99330.28
2023-05-17T08:54:33.690Z,99337.34
2023-05-17T08:57:41.461Z,99336.22
2023-05-17T09:00:44.378Z,99338.53
2023-05-17T09:03:47.667Z,99342.06
2023-05-17T09:06:51.710Z,99346.56
2023-05-17T09:09:53.905Z,99340.69
2023-05-17T09:12:58.520Z,99333.88
2023-05-17T09:16:00.796Z,99330.66
2023-05-17T09:19:04.050Z,99344.75
2023-05-17T09:22:08.056Z,99337.06
2023-05-17T09:25:10.135Z,99335.06
2023-05-17T09:28:12.905Z,99340.38
2023-05-17T09:31:16.895Z,99339.34
2023-05-17T09:34:19.713Z,99345.69
2023-05-17T09:37:23.697Z,99346.41
2023-05-17T09:40:27.122Z,99349.19
2023-05-17T09:43:29.567Z,99339.38
2023-05-17T09:46:34.762Z,99344.94
2023-05-17T09:49:36.710Z,99346.47
2023-05-17T09:52:40.447Z,99340.44
2023-05-17T09:55:42.299Z,99339.88
2023-05-17T09:58:49.717Z,99342.00
2023-05-17T10:01:54.530Z,99351.41
2023-05-17T10:04:57.287Z,99350.22
2023-05-17T10:08:01.379Z,99345.94
2023-05-17T10:11:05.795Z,99332.28
2023-05-17T10:14:10.269Z,99350.44
2023-05-17T10:17:12.990Z,99355.44
2023-05-17T10:20:16.042Z,99354.84
2023-05-17T10:23:20.924Z,99358.66
2023-05-17T10:26:23.239Z,99358.63
2023-05-17T10:29:25.743Z,99361.22
2023-05-17T10:32:29.292Z,99357.88
2023-05-17T10:35:33.472Z,99357.47
2023-05-17T10:38:42.356Z,99356.69
2023-05-17T10:41:46.774Z,99355.50
2023-05-17T10:44:49.131Z,99359.69
2023-05-17T10:47:51.361Z,99352.84
2023-05-17T10:51:01.045Z,99360.78
2023-05-17T10:54:06.003Z,99358.88
2023-05-17T10:57:09.089Z,99353.81
2023-05-17T11:00:19.604Z,99351.16
2023-05-17T11:03:22.964Z,99349.94
2023-05-17T11:06:25.785Z,99356.88
2023-05-17T11:09:32.295Z,99346.94
2023-05-17T11:12:37.646Z,99343.00
2023-05-17T11:15:42.289Z,99329.75
2023-05-17T11:18:48.465Z,99330.88
2023-05-17T11:21:50.907Z,99331.75
2023-05-17T11:24:57.221Z,99339.59
2023-05-17T11:27:59.866Z,99339.13
2023-05-17T11:31:01.802Z,99347.19
2023-05-17T11:34:04.058Z,99344.06
2023-05-17T11:37:10.599Z,99341.81
2023-05-17T11:40:15.035Z,99352.94
2023-05-17T11:43:17.943Z,99351.25
2023-05-17T11:46:20.942Z,99354.56
2023-05-17T11:49:35.066Z,99344.31
2023-05-17T11:52:40.701Z,99339.44
2023-05-17T11:55:44.431Z,99338.53
2023-05-17T11:58:50.828Z,99334.19
2023-05-17T12:01:53.211Z,99336.69
2023-05-17T12:04:55.394Z,99336.69
2023-05-17T12:07:59.126Z,99347.09
2023-05-17T12:11:03.868Z,99342.91
2023-05-17T12:14:06.711Z,99350.06
2023-05-17T12:17:09.326Z,99349.38
2023-05-17T12:20:11.973Z,99353.28
2023-05-17T12:23:14.141Z,99346.56
2023-05-17T12:26:17.834Z,99367.72
2023-05-17T12:29:23.203Z,99360.03
2023-05-17T12:32:25.636Z,99366.41
2023-05-17T12:35:27.719Z,99368.22
2023-05-17T12:38:34.377Z,99364.97
2023-05-17T12:41:38.886Z,99370.59
2023-05-17T12:44:41.146Z,99369.97
2023-05-17T12:47:43.545Z,99366.97
2023-05-17T12:50:49.106Z,99370.06
2023-05-17T12:53:51.796Z,99374.13
2023-05-17T12:56:55.410Z,99371.19
2023-05-17T12:59:57.367Z,99371.44
2023-05-17T13:02:59.458Z,99376.28
2023-05-17T13:06:02.105Z,99375.66
2023-05-17T13:09:07.004Z,99391.22
2023-05-17T13:12:10.572Z,99385.38
2023-05-17T13:15:15.842Z,99386.59
2023-05-17T13:18:18.311Z,99382.47
2023-05-17T13:21:20.864Z,99375.31
2023-05-17T13:24:22.964Z,99385.34
2023-05-17T13:27:27.074Z,99383.50
2023-05-17T13:30:29.533Z,99383.38
2023-05-17T13:33:31.912Z,99381.28
2023-05-17T13:36:34.050Z,99373.50
2023-05-17T13:39:36.569Z,99365.19
2023-05-17T13:42:40.706Z,99373.63
2023-05-17T13:45:42.767Z,99369.53
2023-05-17T13:48:44.966Z,99367.59
2023-05-17T13:51:47.204Z,99364.78
2023-05-17T13:54:49.897Z,99359.91
2023-05-17T13:57:54.317Z,99359.22
2023-05-17T14:00:56.471Z,99369.84
2023-05-17T14:03:59.412Z,99368.56
2023-05-17T14:07:02.103Z,99366.16
2023-05-17T14:10:05.011Z,99361.91
2023-05-17T14:13:09.235Z,99351.91
2023-05-17T14:16:11.581Z,99353.44
2023-05-17T14:19:14.080Z,99364.78
2023-05-17T14:22:16.766Z,99371.19
2023-05-17T14:25:19.255Z,99364.91
2023-05-17T14:28:22.619Z,99357.28
2023-05-17T14:31:24.996Z,99365.31
2023-05-17T14:34:28.277Z,99359.22
2023-05-17T14:37:31.211Z,99355.91
2023-05-17T14:40:33.453Z,99363.34
2023-05-17T14:43:36.676Z,99361.06
2023-05-17T14:46:40.228Z,99361.13
2023-05-17T14:49:42.432Z,99367.63
2023-05-17T14:52:44.658Z,99363.56
2023-05-17T14:55:47.903Z,99363.19
2023-05-17T14:58:52.214Z,99362.13
2023-05-17T15:01:54.285Z,99367.53
2023-05-17T15:04:57.317Z,99358.47
2023-05-17T15:07:59.469Z,99367.75
2023-05-17T15:11:01.768Z,99362.53
2023-05-17T15:14:06.074Z,99366.03
2023-05-17T15:17:10.005Z,99367.56
2023-05-17T15:20:12.373Z,99368.34
2023-05-17T15:23:14.634Z,99375.19
2023-05-17T15:26:19.135Z,99373.22
2023-05-17T15:29:22.776Z,99378.44
2023-05-17T15:32:25.171Z,99363.06
2023-05-17T15:35:27.770Z,99368.13
2023-05-17T15:38:30.045Z,99372.97
2023-05-17T15:41:32.452Z,99377.13
2023-05-17T15:44:36.226Z,99379.13
2023-05-17T15:47:43.629Z,99367.88
2023-05-17T15:50:46.048Z,99373.16
2023-05-17T15:53:48.378Z,99364.91
2023-05-17T15:56:50.394Z,99370.97
2023-05-17T15:59:53.960Z,99376.16
2023-05-17T16:02:56.112Z,99377.78
2023-05-17T16:05:58.771Z,99373.88
2023-05-17T16:09:01.278Z,99374.84
2023-05-17T16:12:04.017Z,99365.63
2023-05-17T16:15:07.998Z,99368.28
2023-05-17T16:18:10.861Z,99374.56
2023-05-17T16:21:15.190Z,99365.50
2023-05-17T16:24:17.642Z,99367.91
2023-05-17T16:27:20.107Z,99371.06
2023-05-17T16:30:23.592Z,99374.41
2023-05-17T16:33:25.717Z,99373.38
2023-05-17T16:36:28.530Z,99390.19
2023-05-17T16:39:31.106Z,99388.91
2023-05-17T16:42:33.594Z,99394.88
2023-05-17T16:45:37.663Z,99389.03
2023-05-17T16:48:39.739Z,99389.44
2023-05-17T16:51:41.662Z,99389.03
2023-05-17T16:54:43.798Z,99391.09
2023-05-17T16:57:46.358Z,99396.50
2023-05-17T17:00:50.197Z,99397.28
2023-05-17T17:03:52.551Z,99403.28
2023-05-17T17:06:54.466Z,99404.75
2023-05-17T17:09:57.389Z,99409.03
2023-05-17T17:12:59.632Z,99409.47
2023-05-17T17:16:03.035Z,99410.53
2023-05-17T17:19:05.093Z,99411.34
2023-05-17T17:22:07.720Z,99410.69
2023-05-17T17:25:10.197Z,99419.00
2023-05-17T17:28:12.468Z,99409.81
2023-05-17T17:31:19.370Z,99412.44
2023-05-17T17:34:21.584Z,99417.53
2023-05-17T17:37:23.563Z,99417.47
2023-05-17T17:40:25.845Z,99431.69
2023-05-17T17:43:28.228Z,99425.59
2023-05-17T17:46:31.612Z,99428.31
2023-05-17T17:49:35.980Z,99423.88
2023-05-17T17:52:38.408Z,99424.84
2023-05-17T17:55:40.509Z,99435.81
2023-05-17T17:58:43.629Z,99435.66
2023-05-17T18:01:47.207Z,99434.16
2023-05-17T18:04:49.403Z,99434.25
2023-05-17T18:07:51.378Z,99430.56
2023-05-17T18:10:54.148Z,99435.16
2023-05-17T18:13:56.977Z,99430.97
2023-05-17T18:17:00.677Z,99433.81
2023-05-17T18:20:02.944Z,99431.31
2023-05-17T18:23:05.065Z,99437.03
2023-05-17T18:26:07.192Z,99436.16
2023-05-17T18:29:09.349Z,99441.00
2023-05-17T18:32:12.641Z,99437.78
2023-05-17T18:35:14.950Z,99439.72
2023-05-17T18:38:16.875Z,99441.63
2023-05-17T18:41:18.734Z,99447.16
2023-05-17T18:44:21.373Z,99450.78
2023-05-17T18:47:24.956Z,99444.06
2023-05-17T18:50:27.795Z,99450.47
2023-05-17T18:53:30.017Z,99451.56
2023-05-17T18:56:32.839Z,99456.03
2023-05-17T18:59:34.718Z,99456.34
2023-05-17T19:02:38.384Z,99461.00
2023-05-17T19:05:40.228Z,99460.19
2023-05-17T19:08:42.112Z,99464.00
2023-05-17T19:11:44.037Z,99464.03
2023-05-17T19:14:46.071Z,99464.22
2023-05-17T19:17:49.453Z,99468.78
2023-05-17T19:20:51.484Z,99468.94
2023-05-17T19:23:53.583Z,99468.25
2023-05-17T19:26:55.494Z,99478.09
2023-05-17T19:29:57.594Z,99474.69
2023-05-17T19:33:00.904Z,99474.00
2023-05-17T19:36:02.802Z,99475.03
2023-05-17T19:39:04.864Z,99480.47
2023-05-17T19:42:06.988Z,99477.06
2023-05-17T19:45:11.028Z,99477.22
2023-05-17T19:48:14.219Z,99477.31
2023-05-17T19:51:16.391Z,99481.00
2023-05-17T19:54:18.687Z,99479.34
2023-05-17T19:57:20.556Z,99480.41
2023-05-17T20:00:22.556Z,99471.72
2023-05-17T20:03:27.259Z,99465.63
2023-05-17T20:06:29.299Z,99472.78
2023-05-17T20:09:32.172Z,99473.78
2023-05-17T20:12:33.986Z,99477.47
2023-05-17T20:15:36.122Z,99487.31
2023-05-17T20:18:42.281Z,99490.06
2023-05-17T20:21:44.738Z,99488.28
2023-05-17T20:24:46.780Z,99487.53
2023-05-17T20:27:48.575Z,99491.97
2023-05-17T20:30:50.482Z,99495.69
2023-05-17T20:33:54.897Z,99490.47
2023-05-17T20:36:57.296Z,99497.56
2023-05-17T20:40:00.231Z,99495.91
2023-05-17T20:43:03.539Z,99492.38
2023-05-17T20:46:09.945Z,99495.09
2023-05-17T20:49:13.398Z,99497.84
2023-05-17T20:52:17.940Z,99503.19
2023-05-17T20:55:22.100Z,99496.22
2023-05-17T20:58:24.212Z,99503.38
2023-05-17T21:01:26.734Z,99505.97
2023-05-17T21:04:30.703Z,99500.72
2023-05-17T21:07:33.204Z,99511.34
2023-05-17T21:10:38.270Z,99506.13
2023-05-17T21:13:40.138Z,99502.69
2023-05-17T21:16:42.476Z,99513.31
2023-05-17T21:19:45.917Z,99512.41
2023-05-17T21:22:47.869Z,99513.25
2023-05-17T21:25:50.409Z,99498.28
2023-05-17T21:28:53.128Z,99500.06
2023-05-17T21:31:55.243Z,99493.88
2023-05-17T21:35:00.221Z,99508.06
2023-05-17T21:38:02.327Z,99507.28
2023-05-17T21:41:05.139Z,99512.72
2023-05-17T21:44:08.701Z,99520.88
2023-05-17T21:47:11.012Z,99522.72
2023-05-17T21:50:14.799Z,99523.69
2023-05-17T21:53:16.992Z,99525.50
2023-05-17T21:56:19.265Z,99534.47
2023-05-17T21:59:27.401Z,99526.59
2023-05-17T22:02:33.446Z,99536.38
2023-05-17T22:05:37.786Z,99529.34
2023-05-17T22:08:42.308Z,99532.97
2023-05-17T22:11:45.485Z,99538.31
2023-05-17T22:14:47.260Z,99532.16
2023-05-17T22:17:52.953Z,99534.91
2023-05-17T22:20:59.336Z,99531.44
2023-05-17T22:24:01.427Z,99539.47
2023-05-17T22:27:03.782Z,99541.25
2023-05-17T22:30:06.500Z,99535.91
2023-05-17T22:33:08.581Z,99537.66
2023-05-17T22:36:15.055Z,99539.38
2023-05-17T22:39:16.911Z,99539.38
2023-05-17T22:42:19.002Z,99541.16
2023-05-17T22:45:20.991Z,99534.16
2023-05-17T22:48:23.085Z,99533.28
2023-05-17T22:51:30.173Z,99536.84
2023-05-17T22:54:32.671Z,99540.50
2023-05-17T22:57:34.713Z,99544.03
2023-05-17T23:00:38.610Z,99540.56
2023-05-17T23:03:40.801Z,99539.66
2023-05-17T23:06:44.091Z,99543.22
2023-05-17T23:09:46.172Z,99545.03
2023-05-17T23:12:50.194Z,99548.59
2023-05-17T23:15:53.830Z,99538.97
2023-05-17T23:18:55.822Z,99537.22
2023-05-17T23:22:03.445Z,99538.00
2023-05-17T23:25:06.112Z,99538.88
2023-05-17T23:28:08.565Z,99534.50
2023-05-17T23:31:10.744Z,99535.47
2023-05-17T23:34:12.721Z,99532.78
2023-05-17T23:37:16.866Z,99531.09
2023-05-17T23:40:18.957Z,99536.47
2023-05-17T23:43:21.024Z,99530.44
2023-05-17T23:46:22.951Z,99527.00
2023-05-17T23:49:25.188Z,99526.13
2023-05-17T23:52:32.737Z,99526.25
2023-05-17T23:55:34.914Z,99525.44
2023-05-17T23:58:36.891Z,99522.75
